Time;durP1;ratioP1;P1;durP2;ratioP2;P2;SDS_P1;SDS_P2;PMS_P1;PMS_P2;Temp;Humidity;BMP_temperature;BMP_pressure;BME280_temperature;BME280_humidity;BME280_pressure;Samples;Min_cycle;Max_cycle;Signal;HPM_P1;HPM_P2
2021/12/26 00:00:48;;;;;;;26.67;11.00;;;10.40;68.60;;;;;;6247888;28;20033;-72
2021/12/26 00:03:50;;;;;;;18.70;9.48;;;10.40;68.60;;;;;;6249915;28;20053;-73
2021/12/26 00:06:51;;;;;;;26.45;11.23;;;10.40;68.70;;;;;;6249395;28;20414;-72
2021/12/26 00:09:52;;;;;;;18.35;9.15;;;10.40;68.60;;;;;;6231446;28;20133;-72
2021/12/26 00:12:56;;;;;;;25.05;9.73;;;10.40;68.60;;;;;;6247361;28;20073;-72
2021/12/26 00:15:59;;;;;;;22.92;10.13;;;10.40;68.60;;;;;;6264749;28;20068;-72
2021/12/26 00:19:00;;;;;;;27.02;11.50;;;10.40;68.70;;;;;;6273730;28;20124;-71
2021/12/26 00:22:01;;;;;;;22.20;10.43;;;10.40;68.70;;;;;;6272796;28;20587;-71
2021/12/26 00:25:04;;;;;;;25.33;11.57;;;10.30;68.50;;;;;;6273594;28;20041;-71
2021/12/26 00:28:06;;;;;;;29.65;13.57;;;10.30;68.40;;;;;;6271950;28;20033;-72
2021/12/26 00:31:07;;;;;;;31.80;12.27;;;10.20;68.50;;;;;;6246227;28;20041;-71
2021/12/26 00:34:10;;;;;;;28.88;11.95;;;10.10;68.80;;;;;;6236620;28;20379;-71
2021/12/26 00:37:11;;;;;;;17.75;8.10;;;10.10;69.10;;;;;;6231058;28;20041;-71
2021/12/26 00:40:15;;;;;;;20.10;8.68;;;10.00;69.70;;;;;;6252627;28;20033;-71
2021/12/26 00:43:17;;;;;;;21.83;8.60;;;9.90;70.30;;;;;;6252424;28;20116;-71
2021/12/26 00:46:19;;;;;;;17.30;9.02;;;9.90;70.80;;;;;;6235704;28;20033;-71
2021/12/26 00:49:21;;;;;;;21.65;10.18;;;9.90;71.00;;;;;;6252079;28;20048;-71
2021/12/26 00:52:22;;;;;;;20.83;10.05;;;9.90;71.10;;;;;;6252209;28;20068;-71
2021/12/26 00:55:24;;;;;;;25.70;10.77;;;9.80;71.10;;;;;;6252637;28;20037;-71
2021/12/26 00:58:25;;;;;;;21.58;9.85;;;9.80;71.20;;;;;;6252656;28;20045;-71
2021/12/26 01:01:26;;;;;;;22.00;10.20;;;9.70;71.20;;;;;;6252854;28;20374;-71
2021/12/26 01:04:28;;;;;;;23.30;11.13;;;9.70;71.40;;;;;;6253033;28;20045;-71
2021/12/26 01:07:43;;;;;;;19.80;8.60;;;9.70;71.60;;;;;;6234967;28;20484;-71
2021/12/26 01:10:53;;;;;;;14.27;7.88;;;9.60;71.80;;;;;;6243368;28;20105;-72
2021/12/26 01:13:58;;;;;;;17.52;7.95;;;9.70;72.30;;;;;;6249032;28;20057;-71
2021/12/26 01:17:21;;;;;;;12.50;6.70;;;9.70;72.40;;;;;;6260867;28;20090;-71
2021/12/26 01:24:07;;;;;;;16.95;7.25;;;9.80;72.50;;;;;;6207258;28;20438;-72
2021/12/26 01:27:09;;;;;;;17.58;7.85;;;9.90;72.50;;;;;;6223612;28;20049;-72
2021/12/26 01:30:11;;;;;;;21.08;7.63;;;10.00;72.40;;;;;;6208010;28;20347;-72
2021/12/26 01:33:19;;;;;;;23.40;9.15;;;10.10;72.20;;;;;;6209277;28;20148;-72
2021/12/26 01:36:30;;;;;;;18.27;8.98;;;10.10;72.00;;;;;;6198683;28;20100;-71
2021/12/26 01:39:50;;;;;;;14.85;8.73;;;10.20;71.90;;;;;;6199866;28;20042;-71
2021/12/26 01:43:02;;;;;;;17.38;9.43;;;10.30;71.90;;;;;;6199918;28;20475;-71
2021/12/26 01:46:32;;;;;;;20.73;9.38;;;10.30;71.60;;;;;;6147833;28;20035;-71
2021/12/26 01:49:35;;;;;;;19.15;9.52;;;10.30;71.40;;;;;;6148177;28;20032;-72
2021/12/26 01:52:36;;;;;;;23.48;9.63;;;10.30;71.30;;;;;;6133199;28;20050;-72
2021/12/26 01:55:45;;;;;;;17.42;8.90;;;10.30;71.20;;;;;;6132135;28;20422;-71
2021/12/26 01:58:47;;;;;;;18.45;9.18;;;10.30;71.00;;;;;;6134508;28;20035;-71
2021/12/26 02:02:15;;;;;;;19.27;8.57;;;10.30;71.00;;;;;;6146566;28;20043;-71
2021/12/26 02:05:18;;;;;;;20.60;8.07;;;10.30;70.90;;;;;;6141027;28;20098;-71
2021/12/26 02:08:20;;;;;;;22.92;8.45;;;10.30;70.90;;;;;;6147507;28;20027;-71
2021/12/26 02:11:23;;;;;;;11.05;6.80;;;10.20;71.00;;;;;;6156523;28;20047;-71
2021/12/26 02:14:25;;;;;;;16.92;7.25;;;10.20;71.00;;;;;;6151577;28;20031;-71
2021/12/26 02:17:44;;;;;;;15.40;7.78;;;10.20;71.20;;;;;;6168141;28;20046;-71
2021/12/26 02:21:17;;;;;;;15.32;7.40;;;10.20;71.30;;;;;;6157288;28;20038;-72
2021/12/26 02:24:57;;;;;;;18.33;7.88;;;10.20;71.30;;;;;;6237531;28;20045;-71
2021/12/26 02:27:54;;;;;;;17.17;8.13;;;10.20;71.30;;;;;;6246008;28;20045;-71
2021/12/26 02:30:57;;;;;;;19.58;8.52;;;10.20;71.30;;;;;;6223992;28;20072;-71
2021/12/26 02:33:58;;;;;;;19.75;8.57;;;10.20;71.40;;;;;;6263492;28;20037;-72
2021/12/26 02:37:00;;;;;;;15.43;7.47;;;10.20;71.30;;;;;;6245895;28;20053;-71
2021/12/26 02:40:01;;;;;;;18.80;9.02;;;10.20;71.40;;;;;;6222967;28;20121;-71
2021/12/26 02:43:03;;;;;;;20.77;8.48;;;10.10;71.40;;;;;;6229799;28;20030;-71
2021/12/26 02:46:06;;;;;;;18.05;8.18;;;10.10;71.40;;;;;;6246048;28;20387;-71
2021/12/26 02:49:09;;;;;;;15.95;7.75;;;10.10;71.60;;;;;;6271110;28;20033;-71
2021/12/26 02:52:11;;;;;;;14.63;7.28;;;10.10;71.60;;;;;;6245863;28;20037;-71
2021/12/26 02:55:13;;;;;;;10.98;6.55;;;10.10;71.70;;;;;;6270630;28;20048;-71
2021/12/26 02:58:15;;;;;;;13.15;6.72;;;10.10;71.80;;;;;;6242002;28;20359;-71
2021/12/26 03:01:20;;;;;;;15.90;7.78;;;10.20;72.00;;;;;;6243735;28;20415;-71
2021/12/26 03:04:21;;;;;;;19.27;8.93;;;10.20;71.80;;;;;;6230013;28;20037;-71
2021/12/26 03:07:22;;;;;;;17.80;8.07;;;10.20;71.60;;;;;;6245420;28;20034;-71
2021/12/26 03:10:26;;;;;;;15.38;7.55;;;10.30;71.50;;;;;;6228982;28;20148;-72
2021/12/26 03:13:27;;;;;;;16.17;8.20;;;10.30;71.30;;;;;;6245644;28;20175;-72
2021/12/26 03:16:28;;;;;;;16.00;8.15;;;10.30;71.00;;;;;;6238526;28;20117;-72
2021/12/26 03:19:34;;;;;;;20.08;8.82;;;10.20;70.80;;;;;;6204713;28;20510;-72
2021/12/26 03:22:36;;;;;;;19.05;8.80;;;10.10;70.90;;;;;;6221025;28;20034;-72
2021/12/26 03:25:37;;;;;;;16.00;8.80;;;10.10;71.00;;;;;;6220618;28;20111;-72
2021/12/26 03:28:38;;;;;;;18.05;8.88;;;10.10;71.00;;;;;;6208920;28;20030;-72
2021/12/26 03:31:41;;;;;;;19.88;9.30;;;10.00;71.00;;;;;;6227981;28;20061;-72
2021/12/26 03:34:49;;;;;;;17.40;8.70;;;10.00;71.20;;;;;;6223378;28;20029;-72
2021/12/26 03:37:52;;;;;;;18.77;8.30;;;9.90;71.20;;;;;;6242760;28;20042;-72
2021/12/26 03:41:13;;;;;;;13.07;7.70;;;9.90;71.20;;;;;;6244566;28;20056;-72
2021/12/26 03:44:18;;;;;;;12.40;7.28;;;9.90;71.20;;;;;;6243605;28;20033;-72
2021/12/26 03:47:21;;;;;;;16.70;8.25;;;9.90;71.40;;;;;;6227724;28;20100;-72
2021/12/26 03:50:23;;;;;;;14.18;7.45;;;9.90;71.50;;;;;;6228456;28;20395;-72
2021/12/26 03:53:25;;;;;;;15.98;6.78;;;9.90;71.70;;;;;;6228420;28;20030;-72
2021/12/26 03:56:27;;;;;;;15.85;7.90;;;9.90;71.70;;;;;;6228469;28;20040;-72
2021/12/26 03:59:42;;;;;;;13.10;7.18;;;9.90;71.80;;;;;;6226845;28;20029;-72
2021/12/26 04:02:45;;;;;;;15.52;7.80;;;9.90;71.90;;;;;;6245671;28;20076;-72
2021/12/26 04:05:46;;;;;;;14.45;7.97;;;9.90;71.90;;;;;;6243873;28;20038;-72
2021/12/26 04:08:47;;;;;;;14.00;7.07;;;9.90;71.90;;;;;;6227876;28;20045;-71
2021/12/26 04:11:48;;;;;;;18.23;8.05;;;9.90;71.80;;;;;;6244328;28;20037;-72
2021/12/26 04:14:49;;;;;;;16.10;7.25;;;9.90;71.80;;;;;;6230759;28;20103;-72
2021/12/26 04:17:54;;;;;;;17.52;8.43;;;9.90;71.70;;;;;;6222899;28;20064;-72
2021/12/26 04:20:55;;;;;;;15.75;7.05;;;9.90;71.70;;;;;;6226174;28;20121;-72
2021/12/26 04:24:01;;;;;;;18.10;8.88;;;9.90;71.70;;;;;;6225855;28;20117;-72
2021/12/26 04:27:02;;;;;;;18.85;8.10;;;9.90;71.70;;;;;;6248893;28;20037;-72
2021/12/26 04:30:10;;;;;;;25.23;8.25;;;9.90;71.70;;;;;;6233868;28;20045;-72
2021/12/26 04:33:11;;;;;;;15.57;7.65;;;9.90;71.70;;;;;;6237103;28;20037;-72
2021/12/26 04:36:15;;;;;;;20.67;7.85;;;9.90;72.40;;;;;;6234068;28;20100;-72
2021/12/26 04:39:16;;;;;;;15.68;7.55;;;9.90;71.40;;;;;;6250154;28;20053;-72
2021/12/26 04:42:18;;;;;;;15.65;7.72;;;9.80;71.40;;;;;;6250035;28;20034;-72
2021/12/26 04:45:51;;;;;;;20.48;8.55;;;9.80;71.40;;;;;;6233813;28;20025;-73
2021/12/26 04:49:21;;;;;;;15.43;7.38;;;9.80;71.50;;;;;;6232141;28;20120;-73
2021/12/26 04:52:22;;;;;;;15.32;8.32;;;9.80;71.40;;;;;;6229935;28;20045;-72
2021/12/26 04:55:25;;;;;;;16.55;7.20;;;9.80;71.40;;;;;;6213407;28;20135;-71
2021/12/26 04:58:27;;;;;;;20.30;7.93;;;9.80;71.50;;;;;;6221285;28;20142;-72
2021/12/26 05:01:28;;;;;;;14.48;6.90;;;9.80;71.70;;;;;;6197105;28;20053;-72
2021/12/26 05:04:29;;;;;;;16.60;7.85;;;9.80;71.70;;;;;;6218194;28;20052;-72
2021/12/26 05:07:30;;;;;;;21.45;8.20;;;9.80;71.50;;;;;;6203489;28;20455;-72
2021/12/26 05:10:32;;;;;;;21.55;8.20;;;9.80;71.40;;;;;;6221127;28;20041;-72
2021/12/26 05:13:34;;;;;;;17.42;8.70;;;9.70;71.30;;;;;;6220804;28;20041;-72
2021/12/26 05:16:35;;;;;;;18.25;8.30;;;9.70;71.40;;;;;;6200723;28;20075;-72
2021/12/26 05:19:37;;;;;;;16.33;7.78;;;9.60;71.40;;;;;;6221023;28;20030;-72
2021/12/26 05:22:40;;;;;;;16.33;8.25;;;9.60;71.50;;;;;;6247161;28;20045;-72
2021/12/26 05:25:42;;;;;;;15.93;7.70;;;9.60;71.50;;;;;;6228848;28;20033;-71
2021/12/26 05:28:43;;;;;;;20.80;8.32;;;9.60;71.60;;;;;;6242484;28;20461;-71
2021/12/26 05:31:45;;;;;;;14.88;8.32;;;9.60;71.60;;;;;;6247709;28;20060;-72
2021/12/26 05:34:47;;;;;;;13.02;6.95;;;9.60;71.70;;;;;;6248836;28;20056;-72
2021/12/26 05:37:48;;;;;;;14.95;7.28;;;9.60;71.50;;;;;;6264206;28;20034;-71
2021/12/26 05:40:49;;;;;;;16.40;8.27;;;9.60;71.50;;;;;;6209600;28;20057;-71
2021/12/26 05:43:51;;;;;;;15.43;7.07;;;9.60;71.60;;;;;;6222921;28;20034;-71
2021/12/26 05:46:52;;;;;;;13.80;7.63;;;9.60;71.80;;;;;;6224736;28;20466;-71
2021/12/26 05:49:54;;;;;;;12.45;7.60;;;9.60;71.90;;;;;;6222619;28;20092;-71
2021/12/26 05:52:55;;;;;;;16.08;7.45;;;9.50;71.90;;;;;;6206967;28;20422;-71
2021/12/26 05:55:56;;;;;;;16.50;8.25;;;9.60;72.00;;;;;;6207129;28;20046;-71
2021/12/26 05:58:57;;;;;;;14.60;7.45;;;9.60;72.00;;;;;;6200706;28;20473;-71
2021/12/26 06:02:00;;;;;;;12.00;6.65;;;9.60;72.00;;;;;;6248380;28;20112;-71
2021/12/26 06:05:04;;;;;;;14.63;7.10;;;9.60;72.00;;;;;;6237245;28;20125;-71
2021/12/26 06:08:05;;;;;;;12.20;6.97;;;9.60;72.00;;;;;;6223430;28;20038;-71
2021/12/26 06:11:07;;;;;;;17.05;7.68;;;9.70;72.00;;;;;;6207541;28;20046;-71
2021/12/26 06:14:09;;;;;;;15.32;6.82;;;9.70;72.00;;;;;;6222878;28;20120;-71
2021/12/26 06:17:10;;;;;;;17.55;7.95;;;9.70;71.90;;;;;;6272617;28;20407;-71
2021/12/26 06:20:40;;;;;;;15.65;6.55;;;9.70;71.90;;;;;;6269492;28;20041;-72
2021/12/26 06:24:04;;;;;;;11.02;5.80;;;9.80;72.00;;;;;;6245037;28;20047;-71
2021/12/26 06:27:05;;;;;;;19.02;7.57;;;9.80;71.90;;;;;;6221589;28;20026;-71
2021/12/26 06:30:44;;;;;;;12.55;6.03;;;9.90;71.90;;;;;;6198416;28;20046;-71
2021/12/26 06:34:04;;;;;;;13.10;5.90;;;10.00;71.90;;;;;;6198439;28;20411;-71
2021/12/26 06:37:23;;;;;;;9.93;5.05;;;10.00;71.90;;;;;;6221273;28;20434;-71
2021/12/26 06:40:43;;;;;;;12.60;5.68;;;10.10;71.90;;;;;;6220440;28;20042;-71
2021/12/26 06:44:23;;;;;;;11.32;6.25;;;10.20;71.70;;;;;;6146329;28;20473;-71
2021/12/26 06:47:37;;;;;;;12.48;5.60;;;10.20;71.60;;;;;;6131245;28;20035;-71
2021/12/26 06:50:39;;;;;;;13.13;6.00;;;10.20;71.40;;;;;;6147625;28;20078;-71
2021/12/26 06:53:40;;;;;;;16.38;6.25;;;10.30;71.40;;;;;;6149733;28;20357;-71
2021/12/26 06:56:43;;;;;;;13.38;6.90;;;10.30;71.30;;;;;;6149020;28;20035;-71
2021/12/26 06:59:44;;;;;;;14.18;5.75;;;10.40;71.30;;;;;;6148942;28;20041;-72
2021/12/26 07:02:46;;;;;;;12.80;6.40;;;10.40;71.10;;;;;;6165486;28;20035;-72
2021/12/26 07:05:47;;;;;;;13.15;7.18;;;10.40;70.90;;;;;;6131509;28;20424;-72
2021/12/26 07:08:52;;;;;;;11.15;6.18;;;10.30;70.80;;;;;;6129839;28;20077;-72
2021/12/26 07:11:54;;;;;;;13.43;6.45;;;10.30;70.90;;;;;;6144783;28;20138;-72
2021/12/26 07:15:11;;;;;;;15.57;6.75;;;10.30;71.00;;;;;;6204631;28;20462;-72
2021/12/26 07:18:19;;;;;;;14.15;7.32;;;10.30;71.00;;;;;;6270696;28;20450;-72
2021/12/26 07:21:22;;;;;;;13.68;7.00;;;10.30;70.90;;;;;;6271970;28;20033;-72
2021/12/26 07:24:30;;;;;;;17.00;7.40;;;10.30;70.80;;;;;;6255810;28;20450;-72
2021/12/26 07:27:31;;;;;;;11.68;6.50;;;10.30;70.80;;;;;;6271006;28;20039;-72
2021/12/26 07:30:51;;;;;;;17.02;6.72;;;10.30;70.70;;;;;;6243672;28;20402;-72
2021/12/26 07:33:52;;;;;;;18.05;7.72;;;10.20;70.70;;;;;;6242744;28;20045;-71
2021/12/26 07:36:53;;;;;;;13.85;7.20;;;10.20;70.70;;;;;;6246345;28;20049;-71
2021/12/26 07:39:57;;;;;;;17.63;7.75;;;10.20;70.40;;;;;;6246483;28;20037;-72
2021/12/26 07:42:58;;;;;;;14.65;7.18;;;10.20;70.40;;;;;;6247205;28;20029;-71
2021/12/26 07:46:22;;;;;;;14.07;6.68;;;10.10;70.50;;;;;;6247227;28;20340;-70
2021/12/26 07:49:24;;;;;;;21.05;7.22;;;10.10;70.30;;;;;;6245029;28;20037;-72
2021/12/26 07:52:46;;;;;;;18.17;6.88;;;10.10;70.30;;;;;;6247563;28;20045;-71
2021/12/26 07:56:06;;;;;;;19.65;7.28;;;10.00;70.30;;;;;;6247176;28;20034;-72
2021/12/26 07:59:25;;;;;;;16.10;7.13;;;10.00;70.30;;;;;;6242015;28;20069;-72
2021/12/26 08:02:45;;;;;;;16.17;6.82;;;10.00;70.30;;;;;;6248576;28;20458;-72
2021/12/26 08:06:06;;;;;;;18.38;7.95;;;9.90;70.50;;;;;;6220747;28;20042;-72
2021/12/26 08:09:20;;;;;;;17.25;7.97;;;9.80;70.60;;;;;;6238086;28;20041;-72
2021/12/26 08:12:22;;;;;;;15.48;7.05;;;9.80;70.70;;;;;;6220419;28;20121;-71
2021/12/26 08:15:23;;;;;;;16.48;6.97;;;9.80;70.70;;;;;;6219544;28;20475;-71
2021/12/26 08:18:24;;;;;;;15.07;7.35;;;9.80;70.80;;;;;;6234516;28;20087;-70
2021/12/26 08:21:26;;;;;;;16.30;7.55;;;9.80;70.90;;;;;;6247844;28;20408;-71
2021/12/26 08:24:28;;;;;;;15.77;7.15;;;9.80;70.90;;;;;;6228178;28;20095;-71
2021/12/26 08:27:29;;;;;;;15.65;6.40;;;9.80;70.90;;;;;;6243787;28;20072;-71
2021/12/26 08:30:30;;;;;;;14.52;7.32;;;9.80;71.00;;;;;;6226293;28;20113;-72
2021/12/26 08:33:32;;;;;;;68.72;24.77;;;9.80;71.00;;;;;;6222811;28;20101;-71
2021/12/26 08:36:33;;;;;;;16.08;8.10;;;9.90;71.10;;;;;;6219325;28;20038;-71
2021/12/26 08:39:38;;;;;;;12.70;6.38;;;10.00;71.10;;;;;;6220978;28;20509;-71
2021/12/26 08:42:40;;;;;;;15.73;7.55;;;10.10;71.10;;;;;;6221456;28;20088;-72
2021/12/26 08:45:41;;;;;;;14.07;7.10;;;10.10;71.00;;;;;;6227313;28;20036;-72
2021/12/26 08:48:42;;;;;;;15.93;7.68;;;10.30;71.00;;;;;;6245824;28;20029;-71
2021/12/26 08:51:43;;;;;;;17.08;7.35;;;10.40;70.80;;;;;;6243737;28;20370;-71
2021/12/26 08:54:46;;;;;;;15.70;7.57;;;10.50;70.60;;;;;;6227557;28;20128;-71
2021/12/26 08:58:00;;;;;;;21.90;7.90;;;10.70;70.40;;;;;;6245750;28;20128;-71
2021/12/26 09:01:01;;;;;;;18.75;8.52;;;10.70;70.00;;;;;;6189896;28;20037;-72
2021/12/26 09:04:03;;;;;;;18.10;7.90;;;10.80;69.60;;;;;;6230623;28;20040;-71
2021/12/26 09:07:06;;;;;;;16.23;8.30;;;10.80;69.40;;;;;;6249166;28;20041;-72
2021/12/26 09:10:09;;;;;;;19.05;8.38;;;10.90;69.40;;;;;;6248761;28;20042;-72
2021/12/26 09:13:10;;;;;;;16.48;7.70;;;10.80;69.40;;;;;;6249729;28;20133;-72
2021/12/26 09:16:12;;;;;;;16.88;7.90;;;10.90;69.40;;;;;;6235824;28;20045;-72
2021/12/26 09:19:14;;;;;;;14.23;7.57;;;10.90;69.20;;;;;;6226098;28;20038;-71
2021/12/26 09:22:17;;;;;;;16.30;7.88;;;10.90;69.20;;;;;;6225555;28;20037;-72
2021/12/26 09:25:19;;;;;;;18.23;8.48;;;10.90;69.30;;;;;;6224702;28;20137;-72
2021/12/26 09:28:20;;;;;;;12.82;7.05;;;10.90;69.30;;;;;;6231599;28;20043;-72
2021/12/26 09:31:21;;;;;;;14.77;7.55;;;11.00;69.60;;;;;;6250395;28;20045;-72
2021/12/26 09:34:25;;;;;;;20.60;7.88;;;11.10;69.50;;;;;;6249456;28;20041;-71
2021/12/26 09:37:26;;;;;;;14.13;7.75;;;11.20;69.30;;;;;;6250090;28;20064;-72
2021/12/26 09:40:27;;;;;;;15.45;7.28;;;11.30;69.10;;;;;;6249348;28;20049;-71
2021/12/26 09:43:28;;;;;;;16.23;6.38;;;11.40;69.00;;;;;;6251063;28;20041;-72
2021/12/26 09:46:32;;;;;;;13.57;6.85;;;11.60;68.90;;;;;;6267953;28;20158;-71
2021/12/26 09:49:34;;;;;;;15.80;7.07;;;11.70;68.60;;;;;;6270991;28;20520;-71
2021/12/26 09:52:35;;;;;;;16.63;8.00;;;11.70;68.40;;;;;;6269882;28;20037;-73
2021/12/26 09:55:36;;;;;;;15.20;7.55;;;11.80;68.40;;;;;;6276032;28;20043;-71
2021/12/26 09:58:55;;;;;;;18.20;9.18;;;11.80;68.30;;;;;;6253033;28;20358;-72
2021/12/26 10:02:05;;;;;;;18.90;9.77;;;11.90;68.70;;;;;;6244646;28;20143;-71
2021/12/26 10:05:07;;;;;;;21.10;10.23;;;12.00;68.50;;;;;;6247564;28;20060;-72
2021/12/26 10:08:08;;;;;;;17.10;8.05;;;12.20;68.00;;;;;;6231810;28;20350;-71
2021/12/26 10:11:16;;;;;;;34.30;11.75;;;12.50;68.00;;;;;;6247419;28;20041;-71
2021/12/26 10:14:29;;;;;;;18.45;8.38;;;12.70;67.50;;;;;;6248013;28;20037;-71
2021/12/26 10:17:31;;;;;;;13.60;7.45;;;12.90;66.80;;;;;;6237708;28;20455;-71
2021/12/26 10:20:35;;;;;;;17.70;8.75;;;13.00;66.40;;;;;;6224699;28;20040;-71
2021/12/26 10:23:36;;;;;;;16.65;8.23;;;13.20;66.10;;;;;;6226720;28;20417;-71
2021/12/26 10:26:57;;;;;;;18.90;8.70;;;13.40;65.60;;;;;;6248704;28;20056;-72
2021/12/26 10:30:01;;;;;;;23.40;8.13;;;13.60;64.70;;;;;;6244764;28;20045;-71
2021/12/26 10:33:03;;;;;;;28.67;12.88;;;13.80;64.00;;;;;;6248910;28;20068;-72
2021/12/26 10:36:07;;;;;;;17.13;9.10;;;13.90;63.40;;;;;;6248717;28;20057;-72
2021/12/26 10:39:18;;;;;;;20.13;9.30;;;14.00;63.00;;;;;;6248111;28;20087;-72
2021/12/26 10:42:33;;;;;;;18.65;8.43;;;14.10;62.40;;;;;;6263801;28;20029;-72
2021/12/26 10:45:35;;;;;;;19.33;8.20;;;14.00;61.50;;;;;;6258031;28;20102;-72
2021/12/26 10:48:36;;;;;;;20.30;8.75;;;14.10;61.90;;;;;;6272701;28;20359;-72
2021/12/26 10:51:37;;;;;;;18.60;8.57;;;14.10;61.80;;;;;;6248312;28;20088;-72
2021/12/26 10:54:41;;;;;;;18.33;8.52;;;14.20;61.40;;;;;;6266332;28;20044;-72
2021/12/26 10:57:44;;;;;;;15.32;7.35;;;14.20;61.00;;;;;;6273150;28;20098;-72
2021/12/26 11:00:49;;;;;;;16.70;6.78;;;14.20;60.90;;;;;;6229747;28;20103;-72
2021/12/26 11:04:05;;;;;;;12.20;5.90;;;14.20;60.50;;;;;;6215750;28;20116;-71
2021/12/26 11:07:08;;;;;;;9.77;5.15;;;14.10;60.50;;;;;;6232598;28;20029;-73
2021/12/26 11:10:20;;;;;;;13.02;5.78;;;14.00;60.20;;;;;;6250424;28;20033;-72
2021/12/26 11:13:27;;;;;;;10.27;4.38;;;14.00;60.20;;;;;;6248535;28;20135;-72
2021/12/26 11:16:38;;;;;;;15.80;7.57;;;13.90;60.50;;;;;;6254009;28;20033;-72
2021/12/26 11:19:45;;;;;;;20.38;6.63;;;13.90;60.60;;;;;;6245869;28;20041;-72
2021/12/26 11:22:46;;;;;;;12.77;5.28;;;13.90;60.50;;;;;;6224972;28;20418;-71
2021/12/26 11:25:57;;;;;;;8.05;3.72;;;13.90;60.50;;;;;;6223337;28;20439;-71
2021/12/26 11:28:58;;;;;;;8.20;4.15;;;13.90;60.30;;;;;;6232167;28;20324;-72
2021/12/26 11:31:59;;;;;;;10.18;4.18;;;13.90;60.20;;;;;;6248275;28;20052;-71
2021/12/26 11:35:02;;;;;;;19.15;7.38;;;13.90;60.20;;;;;;6220700;28;20045;-71
2021/12/26 11:38:04;;;;;;;16.92;7.55;;;14.00;60.40;;;;;;6222169;28;20046;-72
2021/12/26 11:41:36;;;;;;;12.57;5.82;;;14.10;60.30;;;;;;6245893;28;20033;-72
2021/12/26 11:45:21;;;;;;;17.15;7.22;;;14.30;60.00;;;;;;6230685;28;20378;-72
2021/12/26 11:49:07;;;;;;;11.05;4.00;;;14.50;59.80;;;;;;6241289;28;20037;-72
2021/12/26 11:53:02;;;;;;;9.48;4.35;;;14.60;59.50;;;;;;6240884;28;20046;-72
2021/12/26 11:56:37;;;;;;;13.95;4.95;;;14.50;59.10;;;;;;6241424;28;20120;-73
2021/12/26 12:00:10;;;;;;;12.25;4.80;;;14.50;59.40;;;;;;6218298;28;20034;-73
2021/12/26 12:03:29;;;;;;;9.10;4.28;;;14.50;59.40;;;;;;6220147;28;20119;-72
2021/12/26 12:06:30;;;;;;;16.00;7.50;;;14.50;59.50;;;;;;6200693;28;20472;-72
2021/12/26 12:09:38;;;;;;;14.60;6.60;;;14.50;59.60;;;;;;6201538;28;20034;-72
2021/12/26 12:12:42;;;;;;;12.07;5.78;;;14.50;59.70;;;;;;6201596;28;20034;-72
2021/12/26 12:15:46;;;;;;;13.57;5.65;;;14.50;59.70;;;;;;6210295;28;20164;-72
2021/12/26 12:18:47;;;;;;;8.45;4.65;;;14.50;59.70;;;;;;6242705;28;20091;-72
2021/12/26 12:21:50;;;;;;;14.30;5.57;;;14.50;59.70;;;;;;6213954;28;20353;-72
2021/12/26 12:24:52;;;;;;;15.73;7.88;;;14.50;59.70;;;;;;6240788;28;20069;-72
2021/12/26 12:28:08;;;;;;;14.95;7.10;;;14.60;59.90;;;;;;6242751;28;20363;-72
2021/12/26 12:31:10;;;;;;;17.83;8.18;;;14.60;60.00;;;;;;6215124;28;20128;-72
2021/12/26 12:34:15;;;;;;;11.70;5.53;;;14.70;59.80;;;;;;6239645;28;20034;-72
2021/12/26 12:37:35;;;;;;;12.40;6.45;;;14.70;59.80;;;;;;6250333;28;20042;-72
2021/12/26 12:40:39;;;;;;;12.00;5.88;;;14.70;59.80;;;;;;6232230;28;20482;-73
2021/12/26 12:43:46;;;;;;;12.50;6.57;;;14.70;59.90;;;;;;6248531;28;20034;-73
2021/12/26 12:47:02;;;;;;;8.65;5.15;;;14.60;59.90;;;;;;6224257;28;20117;-73
2021/12/26 12:50:04;;;;;;;11.00;6.28;;;14.60;59.90;;;;;;6225290;28;20308;-73
2021/12/26 12:53:05;;;;;;;8.82;5.30;;;14.50;60.00;;;;;;6207410;28;20072;-72
2021/12/26 12:56:09;;;;;;;10.48;5.38;;;14.40;60.20;;;;;;6224958;28;20531;-71
2021/12/26 12:59:13;;;;;;;14.27;6.90;;;14.40;60.50;;;;;;6251327;28;20038;-71
2021/12/26 13:02:30;;;;;;;10.32;4.90;;;14.40;60.60;;;;;;6250774;28;20033;-72
2021/12/26 13:05:35;;;;;;;10.70;5.03;;;14.50;60.70;;;;;;6248918;28;20044;-72
2021/12/26 13:08:36;;;;;;;12.48;5.03;;;14.60;61.20;;;;;;6247724;28;20033;-72
2021/12/26 13:11:38;;;;;;;12.20;4.82;;;14.60;60.30;;;;;;6248148;28;20033;-71
2021/12/26 13:14:57;;;;;;;9.80;4.72;;;14.60;60.30;;;;;;6263897;28;20057;-70
2021/12/26 13:18:06;;;;;;;13.35;6.18;;;14.60;60.40;;;;;;6251290;28;20048;-71
2021/12/26 13:21:12;;;;;;;11.60;5.13;;;14.60;60.20;;;;;;6246551;28;20029;-72
2021/12/26 13:24:14;;;;;;;17.00;7.40;;;14.60;60.10;;;;;;6225967;28;20099;-72
2021/12/26 13:27:23;;;;;;;9.05;4.18;;;14.50;60.00;;;;;;6225263;28;20359;-72
2021/12/26 13:30:27;;;;;;;10.07;5.20;;;14.40;60.00;;;;;;6245438;28;20041;-72
2021/12/26 13:33:34;;;;;;;26.58;10.57;;;14.30;60.10;;;;;;6249539;28;20037;-73
2021/12/26 13:36:36;;;;;;;13.20;7.00;;;14.30;60.40;;;;;;6261781;28;20042;-72
2021/12/26 13:39:36;;;;;;;22.17;8.27;;;14.30;60.60;;;;;;6251152;28;20321;-72
2021/12/26 13:42:39;;;;;;;23.83;10.48;;;14.30;60.60;;;;;;6266630;28;20094;-73
2021/12/26 13:45:44;;;;;;;23.42;9.00;;;14.40;60.80;;;;;;6263490;28;20029;-72
2021/12/26 13:48:53;;;;;;;12.65;6.32;;;14.40;60.60;;;;;;6276374;28;20438;-71
2021/12/26 13:51:55;;;;;;;20.52;8.18;;;14.40;60.60;;;;;;6274262;28;20064;-72
2021/12/26 13:54:57;;;;;;;11.80;4.85;;;14.50;60.70;;;;;;6281619;28;20029;-72
2021/12/26 13:57:59;;;;;;;12.05;5.57;;;14.40;60.60;;;;;;6260939;28;20048;-72
2021/12/26 14:01:00;;;;;;;14.23;5.43;;;14.40;60.70;;;;;;6251370;28;20092;-72
2021/12/26 14:04:01;;;;;;;10.50;4.90;;;14.40;60.90;;;;;;6250611;28;20106;-72
2021/12/26 14:07:10;;;;;;;9.98;4.05;;;14.40;61.10;;;;;;6227927;28;20113;-72
2021/12/26 14:10:16;;;;;;;11.25;5.03;;;14.40;61.00;;;;;;6224849;28;20053;-71
2021/12/26 14:13:20;;;;;;;10.98;5.40;;;14.40;61.00;;;;;;6207458;28;20057;-73
2021/12/26 14:16:31;;;;;;;10.43;5.15;;;14.30;61.10;;;;;;6229988;28;20565;-73
2021/12/26 14:19:32;;;;;;;10.43;3.92;;;14.30;61.20;;;;;;6273026;28;20100;-74
2021/12/26 14:22:33;;;;;;;8.75;4.25;;;14.30;61.10;;;;;;6273207;28;20056;-72
2021/12/26 14:25:34;;;;;;;9.27;3.92;;;14.40;61.20;;;;;;6264076;28;20332;-72
2021/12/26 14:29:03;;;;;;;9.52;4.60;;;14.40;61.10;;;;;;6231637;28;20029;-73
2021/12/26 14:32:07;;;;;;;12.37;6.20;;;14.50;61.00;;;;;;6248353;28;20041;-72
2021/12/26 14:35:13;;;;;;;16.35;6.90;;;14.60;60.90;;;;;;6247645;28;20282;-72
2021/12/26 14:38:15;;;;;;;17.95;7.78;;;14.60;60.50;;;;;;6247365;28;20467;-71
2021/12/26 14:41:16;;;;;;;12.07;5.03;;;14.70;60.50;;;;;;6231358;28;20091;-73
2021/12/26 14:44:24;;;;;;;13.23;4.97;;;14.80;60.40;;;;;;6246745;28;20026;-72
2021/12/26 14:47:37;;;;;;;11.52;5.10;;;14.80;60.30;;;;;;6270980;28;20040;-72
2021/12/26 14:50:39;;;;;;;13.05;5.65;;;14.80;60.20;;;;;;6272402;28;20044;-71
2021/12/26 14:53:41;;;;;;;9.38;4.20;;;14.80;60.10;;;;;;6273504;28;20025;-71
2021/12/26 14:56:48;;;;;;;7.35;3.70;;;14.80;60.00;;;;;;6272084;28;20311;-72
2021/12/26 14:59:56;;;;;;;8.98;4.07;;;14.70;59.90;;;;;;6257792;28;20088;-72
2021/12/26 15:02:58;;;;;;;10.18;4.30;;;14.80;60.00;;;;;;6248422;28;20036;-71
2021/12/26 15:06:10;;;;;;;8.80;4.15;;;14.70;59.80;;;;;;6263320;28;20458;-72
2021/12/26 15:09:33;;;;;;;9.40;4.78;;;14.70;59.90;;;;;;6247400;28;20034;-72
2021/12/26 15:12:55;;;;;;;9.48;4.80;;;14.70;60.00;;;;;;6223275;28;20069;-72
2021/12/26 15:15:56;;;;;;;10.65;4.60;;;14.70;60.10;;;;;;6255110;28;20391;-72
2021/12/26 15:18:57;;;;;;;12.13;4.50;;;14.70;60.00;;;;;;6271091;28;20133;-73
2021/12/26 15:22:05;;;;;;;9.23;4.47;;;14.70;60.00;;;;;;6254322;28;20041;-72
2021/12/26 15:25:07;;;;;;;8.48;4.57;;;14.70;60.00;;;;;;6271545;28;20037;-72
2021/12/26 15:28:12;;;;;;;10.10;4.95;;;14.70;60.20;;;;;;6270976;28;20029;-72
2021/12/26 15:31:17;;;;;;;6.82;4.10;;;14.70;60.30;;;;;;6238583;28;20053;-73
2021/12/26 15:34:18;;;;;;;8.93;4.60;;;14.60;60.30;;;;;;6246507;28;20120;-72
2021/12/26 15:37:19;;;;;;;9.60;4.80;;;14.50;60.30;;;;;;6238047;28;20376;-71
2021/12/26 15:40:20;;;;;;;8.85;4.18;;;14.50;60.50;;;;;;6245101;28;20029;-72
2021/12/26 15:43:21;;;;;;;15.10;5.70;;;14.40;60.80;;;;;;6230974;28;20072;-71
2021/12/26 15:46:23;;;;;;;11.85;5.53;;;14.40;61.00;;;;;;6245779;28;20033;-72
2021/12/26 15:49:25;;;;;;;10.60;3.90;;;14.30;61.00;;;;;;6245208;28;20420;-72
2021/12/26 15:52:27;;;;;;;10.82;4.28;;;14.30;61.20;;;;;;6246414;28;20041;-72
2021/12/26 15:55:29;;;;;;;12.70;5.78;;;14.20;61.20;;;;;;6245698;28;20040;-71
2021/12/26 15:58:30;;;;;;;7.20;3.90;;;14.10;61.40;;;;;;6220859;28;20155;-72
2021/12/26 16:01:31;;;;;;;9.68;4.07;;;14.10;61.40;;;;;;6246314;28;20034;-71
2021/12/26 16:04:33;;;;;;;10.13;3.83;;;14.10;61.40;;;;;;6242020;28;20037;-72